Time;durP1;ratioP1;P1;durP2;ratioP2;P2;SDS_P1;SDS_P2;PMS_P1;PMS_P2;Temp;Humidity;BMP_temperature;BMP_pressure;BME280_temperature;BME280_humidity;BME280_pressure;Samples;Min_cycle;Max_cycle;Signal;HPM_P1;HPM_P2
2022/09/24 00:00:57;;;;;;;6.25;4.10;;;;;;;;;;5095734;28;20027;-77
2022/09/24 00:03:24;;;;;;;7.18;4.40;;;;;;;;;;5095546;28;20051;-77
2022/09/24 00:05:51;;;;;;;7.70;4.65;;;;;;;;;;5093853;28;20118;-77
2022/09/24 00:08:18;;;;;;;8.00;4.53;;;;;;;;;;5093687;28;20051;-77
2022/09/24 00:10:46;;;;;;;5.80;4.13;;;;;;;;;;5094605;28;20396;-77
2022/09/24 00:13:14;;;;;;;5.95;4.22;;;;;;;;;;5095239;28;20081;-77
2022/09/24 00:15:44;;;;;;;6.97;4.28;;;;;;;;;;5095378;28;20062;-77
2022/09/24 00:18:10;;;;;;;6.20;4.13;;;;;;;;;;5093990;28;20027;-77
2022/09/24 00:20:36;;;;;;;5.97;4.13;;;;;;;;;;5093738;28;20111;-77
2022/09/24 00:23:01;;;;;;;8.18;4.28;;;;;;;;;;5094906;28;20392;-77
2022/09/24 00:28:12;;;;;;;6.80;3.90;;;;;;;;;;5095267;28;20660;-77
2022/09/24 00:30:39;;;;;;;8.95;4.10;;;;;;;;;;5095074;28;20111;-77
2022/09/24 00:33:04;;;;;;;5.38;3.72;;;;;;;;;;5094196;28;20096;-77
2022/09/24 00:35:31;;;;;;;7.63;3.75;;;;;;;;;;5095241;28;20051;-77
2022/09/24 00:37:57;;;;;;;5.47;3.97;;;;;;;;;;5095307;28;20024;-77
2022/09/24 00:40:27;;;;;;;7.75;4.05;;;;;;;;;;5094902;28;20023;-77
2022/09/24 00:42:52;;;;;;;8.73;4.05;;;;;;;;;;5094615;28;20039;-77
2022/09/24 00:45:17;;;;;;;6.97;3.80;;;;;;;;;;5094626;28;20032;-77
2022/09/24 00:47:43;;;;;;;7.20;3.80;;;;;;;;;;5093616;28;20279;-77
2022/09/24 00:50:16;;;;;;;9.40;4.20;;;;;;;;;;5093198;28;20785;-77
2022/09/24 00:52:54;;;;;;;5.87;3.80;;;;;;;;;;5095217;28;20486;-77
2022/09/24 00:55:21;;;;;;;5.25;3.70;;;;;;;;;;5093228;28;20272;-77
2022/09/24 00:57:48;;;;;;;6.07;4.00;;;;;;;;;;5094560;28;20024;-77
2022/09/24 01:00:14;;;;;;;6.35;3.90;;;;;;;;;;5093210;28;20065;-77
2022/09/24 01:02:45;;;;;;;7.15;3.85;;;;;;;;;;5094149;28;20431;-77
2022/09/24 01:05:10;;;;;;;8.13;3.90;;;;;;;;;;5092880;28;20016;-77
2022/09/24 01:07:35;;;;;;;7.82;4.20;;;;;;;;;;5093012;28;20024;-77
2022/09/24 01:10:02;;;;;;;7.07;4.10;;;;;;;;;;5092981;28;20038;-77
2022/09/24 01:12:57;;;;;;;7.38;4.20;;;;;;;;;;5094548;28;20024;-77
2022/09/24 01:15:44;;;;;;;7.75;4.05;;;;;;;;;;5095039;28;20388;-77
2022/09/24 01:18:19;;;;;;;6.30;4.13;;;;;;;;;;5094975;28;20028;-77
2022/09/24 01:21:20;;;;;;;9.18;4.50;;;;;;;;;;5094387;28;20020;-78
2022/09/24 01:24:02;;;;;;;7.65;4.15;;;;;;;;;;5094724;28;20028;-77
2022/09/24 01:26:48;;;;;;;7.28;4.50;;;;;;;;;;5093571;28;20020;-75
2022/09/24 01:29:32;;;;;;;6.45;4.07;;;;;;;;;;5095981;28;20031;-77
2022/09/24 01:32:04;;;;;;;7.95;4.15;;;;;;;;;;5099091;28;20020;-78
2022/09/24 01:34:38;;;;;;;8.82;4.28;;;;;;;;;;5097221;28;20023;-77
2022/09/24 01:37:04;;;;;;;6.07;4.18;;;;;;;;;;5099215;28;20027;-77
2022/09/24 01:39:32;;;;;;;5.97;4.40;;;;;;;;;;5098528;28;20028;-77
2022/09/24 01:41:57;;;;;;;6.70;4.13;;;;;;;;;;5098681;28;20036;-77
2022/09/24 01:44:24;;;;;;;6.93;4.85;;;;;;;;;;5098546;28;20105;-77
2022/09/24 01:46:49;;;;;;;6.22;4.32;;;;;;;;;;5098788;28;20024;-77
2022/09/24 01:49:15;;;;;;;13.60;4.67;;;;;;;;;;5098580;28;20059;-77
2022/09/24 01:51:48;;;;;;;8.02;4.35;;;;;;;;;;5098780;28;20257;-77
2022/09/24 01:54:31;;;;;;;8.15;4.65;;;;;;;;;;5097180;28;20031;-78
2022/09/24 01:57:17;;;;;;;6.78;4.55;;;;;;;;;;5099009;28;20028;-77
2022/09/24 02:00:10;;;;;;;9.65;4.60;;;;;;;;;;5098759;28;20022;-77
2022/09/24 02:02:45;;;;;;;6.35;4.22;;;;;;;;;;5098802;28;20118;-77
2022/09/24 02:05:22;;;;;;;8.20;4.85;;;;;;;;;;5098730;28;20027;-78
2022/09/24 02:07:56;;;;;;;8.65;4.72;;;;;;;;;;5098306;28;20020;-77
2022/09/24 02:10:21;;;;;;;6.78;4.47;;;;;;;;;;5096496;28;20099;-78
2022/09/24 02:12:54;;;;;;;7.20;4.30;;;;;;;;;;5096680;28;20109;-77
2022/09/24 02:15:25;;;;;;;8.38;4.45;;;;;;;;;;5097933;28;20020;-77
2022/09/24 02:17:54;;;;;;;7.82;4.38;;;;;;;;;;5098320;28;20034;-77
2022/09/24 02:20:22;;;;;;;6.22;4.50;;;;;;;;;;5097904;28;20115;-77
2022/09/24 02:22:50;;;;;;;6.68;4.50;;;;;;;;;;5097950;28;20501;-78
2022/09/24 02:25:40;;;;;;;7.72;4.90;;;;;;;;;;5098553;28;20039;-77
2022/09/24 02:28:05;;;;;;;7.18;4.88;;;;;;;;;;5098370;28;20024;-77
2022/09/24 02:30:36;;;;;;;7.85;4.63;;;;;;;;;;5098013;28;20497;-78
2022/09/24 02:34:19;;;;;;;6.68;4.50;;;;;;;;;;5098088;28;20035;-77
2022/09/24 02:35:51;;;;;;;7.35;4.53;;;;;;;;;;5097439;28;20036;-77
2022/09/24 02:38:17;;;;;;;8.68;4.43;;;;;;;;;;5096619;28;20038;-77
2022/09/24 02:40:43;;;;;;;7.50;4.53;;;;;;;;;;5095643;28;20020;-77
2022/09/24 02:43:08;;;;;;;6.40;4.20;;;;;;;;;;5097020;28;20442;-76
2022/09/24 02:45:33;;;;;;;5.63;4.00;;;;;;;;;;5096323;28;20078;-77
2022/09/24 02:47:58;;;;;;;6.17;4.17;;;;;;;;;;5095838;28;20686;-77
2022/09/24 02:50:23;;;;;;;5.43;3.73;;;;;;;;;;5094476;28;20705;-77
2022/09/24 02:52:49;;;;;;;5.10;3.90;;;;;;;;;;5094572;28;20633;-76
2022/09/24 02:55:14;;;;;;;6.87;4.20;;;;;;;;;;5096063;28;20392;-77
2022/09/24 02:57:39;;;;;;;8.00;4.03;;;;;;;;;;5095945;28;20617;-77
2022/09/24 03:00:05;;;;;;;6.07;3.93;;;;;;;;;;5095561;28;20015;-77
2022/09/24 03:02:30;;;;;;;8.48;4.22;;;;;;;;;;5095482;28;20298;-77
2022/09/24 03:04:55;;;;;;;7.23;3.87;;;;;;;;;;5094405;28;20060;-77
2022/09/24 03:07:21;;;;;;;8.98;3.97;;;;;;;;;;5095421;28;20290;-76
2022/09/24 03:09:46;;;;;;;5.30;3.85;;;;;;;;;;5095061;28;20031;-76
2022/09/24 03:12:11;;;;;;;5.82;3.78;;;;;;;;;;5095305;28;20106;-77
2022/09/24 03:14:37;;;;;;;6.50;4.30;;;;;;;;;;5095349;28;20020;-77
2022/09/24 03:17:02;;;;;;;6.63;4.18;;;;;;;;;;5095702;28;20109;-78
2022/09/24 03:19:28;;;;;;;6.28;3.90;;;;;;;;;;5097051;28;20431;-77
2022/09/24 03:21:53;;;;;;;4.65;3.42;;;;;;;;;;5095513;28;20114;-78
2022/09/24 03:24:18;;;;;;;4.63;3.37;;;;;;;;;;5096274;28;20081;-78
2022/09/24 03:26:44;;;;;;;6.25;4.07;;;;;;;;;;5096708;28;20244;-78
2022/09/24 03:29:09;;;;;;;5.65;3.67;;;;;;;;;;5096353;28;20024;-77
2022/09/24 03:31:34;;;;;;;8.60;4.32;;;;;;;;;;5095043;28;20027;-78
2022/09/24 03:34:00;;;;;;;5.68;3.75;;;;;;;;;;5096459;28;20028;-78
2022/09/24 03:36:25;;;;;;;10.27;4.03;;;;;;;;;;5096491;28;20016;-77
2022/09/24 03:38:55;;;;;;;5.82;3.88;;;;;;;;;;5096365;28;20305;-77
2022/09/24 03:41:20;;;;;;;5.63;3.50;;;;;;;;;;5095406;28;20026;-77
2022/09/24 03:43:46;;;;;;;5.75;3.50;;;;;;;;;;5096132;28;20111;-77
2022/09/24 03:46:12;;;;;;;6.27;4.07;;;;;;;;;;5097197;28;20032;-77
2022/09/24 03:48:39;;;;;;;6.43;4.63;;;;;;;;;;5096555;28;20253;-78
2022/09/24 03:51:17;;;;;;;8.35;5.50;;;;;;;;;;5096649;28;20028;-78
2022/09/24 03:53:43;;;;;;;7.35;5.00;;;;;;;;;;5095419;28;20110;-77
2022/09/24 03:56:08;;;;;;;6.68;4.60;;;;;;;;;;5096850;28;20456;-78
2022/09/24 03:58:37;;;;;;;7.07;4.60;;;;;;;;;;5095089;28;20114;-77
2022/09/24 04:01:04;;;;;;;6.55;4.55;;;;;;;;;;5094688;28;20026;-77
2022/09/24 04:03:30;;;;;;;6.40;4.20;;;;;;;;;;5094484;28;20111;-77
2022/09/24 04:05:55;;;;;;;6.95;4.35;;;;;;;;;;5095485;28;20135;-77
2022/09/24 04:08:21;;;;;;;7.07;3.93;;;;;;;;;;5095505;28;20495;-77
2022/09/24 04:10:47;;;;;;;7.32;3.65;;;;;;;;;;5094685;28;20805;-77
2022/09/24 04:13:13;;;;;;;8.52;4.20;;;;;;;;;;5096444;28;20028;-78
2022/09/24 04:15:39;;;;;;;5.65;3.78;;;;;;;;;;5096686;28;20031;-77
2022/09/24 04:18:04;;;;;;;5.75;3.78;;;;;;;;;;5095970;28;20024;-77
2022/09/24 04:20:29;;;;;;;9.07;4.80;;;;;;;;;;5096116;28;20075;-77
2022/09/24 04:22:57;;;;;;;9.52;4.28;;;;;;;;;;5096005;28;20386;-77
2022/09/24 04:25:24;;;;;;;6.15;3.97;;;;;;;;;;5096245;28;20098;-77
2022/09/24 04:27:54;;;;;;;6.55;4.65;;;;;;;;;;5095244;28;20035;-77
2022/09/24 04:30:20;;;;;;;8.85;4.32;;;;;;;;;;5094361;28;20093;-77
2022/09/24 04:32:46;;;;;;;6.95;4.25;;;;;;;;;;5095755;28;20446;-77
2022/09/24 04:35:11;;;;;;;9.02;4.35;;;;;;;;;;5095971;28;20028;-77
2022/09/24 04:37:37;;;;;;;8.80;4.05;;;;;;;;;;5094229;28;20025;-77
2022/09/24 04:40:04;;;;;;;5.65;4.30;;;;;;;;;;5095479;28;20052;-77
2022/09/24 04:42:30;;;;;;;8.27;4.20;;;;;;;;;;5093919;28;20123;-77
2022/09/24 04:44:55;;;;;;;9.50;4.22;;;;;;;;;;5095752;28;20056;-77
2022/09/24 04:47:23;;;;;;;8.13;4.80;;;;;;;;;;5095646;28;20023;-77
2022/09/24 04:49:48;;;;;;;7.22;4.47;;;;;;;;;;5095034;28;20326;-77
2022/09/24 04:52:14;;;;;;;6.63;4.22;;;;;;;;;;5093750;28;20020;-77
2022/09/24 04:54:45;;;;;;;7.20;4.15;;;;;;;;;;5095281;28;20020;-77
2022/09/24 04:57:12;;;;;;;5.25;3.78;;;;;;;;;;5095913;28;20496;-77
2022/09/24 04:59:37;;;;;;;5.43;3.97;;;;;;;;;;5094768;28;20051;-77
2022/09/24 05:02:02;;;;;;;6.13;4.15;;;;;;;;;;5097046;28;20065;-77
2022/09/24 05:04:29;;;;;;;7.17;4.07;;;;;;;;;;5095916;28;20031;-78
2022/09/24 05:06:54;;;;;;;5.07;3.60;;;;;;;;;;5096044;28;20256;-77
2022/09/24 05:09:19;;;;;;;5.68;3.80;;;;;;;;;;5095896;28;20020;-77
2022/09/24 05:11:44;;;;;;;6.80;4.07;;;;;;;;;;5096438;28;20063;-77
2022/09/24 05:14:10;;;;;;;6.80;3.78;;;;;;;;;;5096033;28;20261;-78
2022/09/24 05:16:35;;;;;;;5.90;3.97;;;;;;;;;;5095025;28;20116;-77
2022/09/24 05:19:03;;;;;;;5.67;4.10;;;;;;;;;;5095662;28;20039;-77
2022/09/24 05:21:29;;;;;;;10.20;5.47;;;;;;;;;;5094587;28;20657;-77
2022/09/24 05:23:54;;;;;;;15.85;5.72;;;;;;;;;;5095512;28;20028;-78
2022/09/24 05:29:03;;;;;;;16.02;7.05;;;;;;;;;;5095258;28;20288;-77
2022/09/24 05:31:28;;;;;;;10.50;5.93;;;;;;;;;;5096147;28;20400;-77
2022/09/24 05:33:53;;;;;;;11.90;6.20;;;;;;;;;;5095664;28;20016;-75
2022/09/24 05:36:18;;;;;;;9.73;5.35;;;;;;;;;;5095889;28;20277;-77
2022/09/24 05:38:44;;;;;;;8.68;4.85;;;;;;;;;;5096650;28;20103;-77
2022/09/24 05:41:09;;;;;;;8.40;5.03;;;;;;;;;;5096451;28;20370;-77
2022/09/24 05:43:34;;;;;;;6.60;4.30;;;;;;;;;;5095648;28;20663;-77
2022/09/24 05:46:00;;;;;;;7.22;4.05;;;;;;;;;;5094774;28;20028;-77
2022/09/24 05:48:25;;;;;;;7.88;4.07;;;;;;;;;;5096202;28;20393;-76
2022/09/24 05:50:54;;;;;;;6.50;4.07;;;;;;;;;;5094376;28;20025;-76
2022/09/24 05:53:20;;;;;;;7.20;4.00;;;;;;;;;;5094690;28;20260;-76
2022/09/24 05:55:45;;;;;;;8.63;4.20;;;;;;;;;;5097021;28;20183;-76
2022/09/24 05:58:12;;;;;;;6.70;4.20;;;;;;;;;;5094784;28;20031;-76
2022/09/24 06:00:38;;;;;;;6.22;3.63;;;;;;;;;;5092360;28;20245;-78
2022/09/24 06:03:06;;;;;;;6.57;3.78;;;;;;;;;;5095785;28;20024;-78
2022/09/24 06:05:34;;;;;;;5.32;3.90;;;;;;;;;;5096323;28;20024;-78
2022/09/24 06:07:59;;;;;;;6.60;4.18;;;;;;;;;;5094750;28;20138;-78
2022/09/24 06:10:25;;;;;;;6.35;3.70;;;;;;;;;;5095066;28;20495;-78
2022/09/24 06:12:51;;;;;;;10.40;4.47;;;;;;;;;;5096132;28;20119;-78
2022/09/24 06:15:18;;;;;;;15.35;4.90;;;;;;;;;;5095824;28;20103;-78
2022/09/24 06:17:43;;;;;;;8.10;4.70;;;;;;;;;;5100248;28;20023;-78
2022/09/24 06:20:08;;;;;;;8.47;4.40;;;;;;;;;;5099881;28;20020;-78
2022/09/24 06:22:33;;;;;;;8.90;3.80;;;;;;;;;;5100084;28;20253;-78
2022/09/24 06:24:59;;;;;;;8.73;4.33;;;;;;;;;;5099462;28;20028;-78
2022/09/24 06:27:24;;;;;;;8.10;4.90;;;;;;;;;;5098280;28;20272;-77
2022/09/24 06:29:49;;;;;;;9.23;4.60;;;;;;;;;;5096417;28;20281;-77
2022/09/24 06:32:14;;;;;;;5.95;4.00;;;;;;;;;;5096625;28;20264;-78
2022/09/24 06:34:40;;;;;;;6.32;4.07;;;;;;;;;;5097125;28;20035;-77
2022/09/24 06:37:05;;;;;;;5.47;3.88;;;;;;;;;;5096197;28;20019;-78
2022/09/24 06:39:30;;;;;;;8.35;4.20;;;;;;;;;;5096265;28;20016;-78
2022/09/24 06:41:56;;;;;;;8.90;4.20;;;;;;;;;;5096250;28;20020;-78
2022/09/24 06:44:22;;;;;;;7.93;4.28;;;;;;;;;;5096372;28;20519;-77
2022/09/24 06:46:47;;;;;;;7.40;4.03;;;;;;;;;;5095996;28;20032;-77
2022/09/24 06:49:12;;;;;;;6.47;3.90;;;;;;;;;;5094678;28;20020;-77
2022/09/24 06:51:38;;;;;;;6.85;4.07;;;;;;;;;;5096134;28;20437;-77
2022/09/24 06:54:03;;;;;;;7.10;4.32;;;;;;;;;;5095886;28;20027;-78
2022/09/24 06:56:29;;;;;;;6.85;4.20;;;;;;;;;;5096477;28;20032;-77
2022/09/24 06:58:55;;;;;;;6.47;4.13;;;;;;;;;;5095897;28;20035;-76
2022/09/24 07:01:21;;;;;;;8.70;4.18;;;;;;;;;;5097053;28;20016;-78
2022/09/24 07:03:46;;;;;;;7.95;3.92;;;;;;;;;;5096440;28;20495;-78
2022/09/24 07:06:12;;;;;;;7.65;4.32;;;;;;;;;;5097612;28;20028;-78
2022/09/24 07:08:37;;;;;;;7.70;4.18;;;;;;;;;;5099115;28;20028;-79
2022/09/24 07:11:03;;;;;;;8.13;4.10;;;;;;;;;;5099165;28;20046;-78
2022/09/24 07:13:29;;;;;;;5.43;4.10;;;;;;;;;;5097853;28;20027;-78
2022/09/24 07:15:54;;;;;;;8.10;4.10;;;;;;;;;;5099320;28;20020;-78
2022/09/24 07:18:19;;;;;;;6.28;3.95;;;;;;;;;;5096550;28;20026;-77
2022/09/24 07:20:51;;;;;;;7.13;4.15;;;;;;;;;;5095735;28;20031;-76
2022/09/24 07:23:17;;;;;;;6.82;3.65;;;;;;;;;;5095701;28;20028;-77
2022/09/24 07:25:42;;;;;;;9.98;4.10;;;;;;;;;;5097094;28;20085;-77
2022/09/24 07:28:10;;;;;;;9.30;3.92;;;;;;;;;;5109334;28;20028;-76
2022/09/24 07:30:36;;;;;;;5.95;3.63;;;;;;;;;;5112726;28;20024;-77
2022/09/24 07:33:02;;;;;;;6.32;3.70;;;;;;;;;;5113465;28;20024;-78
2022/09/24 07:35:28;;;;;;;5.82;3.72;;;;;;;;;;5112698;28;20099;-77
2022/09/24 07:37:58;;;;;;;6.03;3.45;;;;;;;;;;5110841;28;20046;-77
2022/09/24 07:40:23;;;;;;;6.50;3.67;;;;;;;;;;5108860;28;20020;-77
2022/09/24 07:42:48;;;;;;;7.15;3.60;;;;;;;;;;5112209;28;20066;-77
2022/09/24 07:45:16;;;;;;;8.55;3.90;;;;;;;;;;5109577;28;20031;-77
2022/09/24 07:47:41;;;;;;;5.43;3.58;;;;;;;;;;5112073;28;20028;-76
2022/09/24 07:50:06;;;;;;;8.90;4.15;;;;;;;;;;5112158;28;20031;-76
2022/09/24 07:52:32;;;;;;;6.55;4.20;;;;;;;;;;5111900;28;20121;-77
2022/09/24 07:54:57;;;;;;;7.60;4.30;;;;;;;;;;5114458;28;20047;-77
2022/09/24 07:57:22;;;;;;;9.47;4.73;;;;;;;;;;5112490;28;20256;-77
2022/09/24 07:59:50;;;;;;;11.50;4.37;;;;;;;;;;5112835;28;20256;-77
2022/09/24 08:02:16;;;;;;;6.32;4.00;;;;;;;;;;5112523;28;20284;-77
2022/09/24 08:04:42;;;;;;;6.80;4.10;;;;;;;;;;5112714;28;20032;-77
2022/09/24 08:07:09;;;;;;;8.15;4.03;;;;;;;;;;5111267;28;20019;-77
2022/09/24 08:09:34;;;;;;;6.80;3.65;;;;;;;;;;5112300;28;20088;-77
2022/09/24 08:12:09;;;;;;;8.88;4.10;;;;;;;;;;5111736;28;20028;-77
2022/09/24 08:14:35;;;;;;;6.20;3.95;;;;;;;;;;5112250;28;20030;-77
2022/09/24 08:17:01;;;;;;;7.35;3.90;;;;;;;;;;5112138;28;20381;-77
2022/09/24 08:19:27;;;;;;;6.93;4.10;;;;;;;;;;5109403;28;20031;-76
2022/09/24 08:21:52;;;;;;;6.85;4.00;;;;;;;;;;5104322;28;20031;-78
2022/09/24 08:24:17;;;;;;;5.15;3.78;;;;;;;;;;5096087;28;20107;-77
2022/09/24 08:26:43;;;;;;;7.40;4.00;;;;;;;;;;5095885;28;20032;-77
2022/09/24 08:29:08;;;;;;;9.47;3.77;;;;;;;;;;5094773;28;20326;-78
2022/09/24 08:31:33;;;;;;;6.75;4.18;;;;;;;;;;5095382;28;20296;-77
2022/09/24 08:33:59;;;;;;;8.10;3.75;;;;;;;;;;5094754;28;20059;-77
2022/09/24 08:36:26;;;;;;;6.65;3.63;;;;;;;;;;5095129;28;20028;-76
2022/09/24 08:38:53;;;;;;;8.35;3.90;;;;;;;;;;5094101;28;20395;-77
2022/09/24 08:41:54;;;;;;;6.50;3.88;;;;;;;;;;5096281;28;20020;-76
2022/09/24 08:47:44;;;;;;;5.57;3.67;;;;;;;;;;5099487;28;20054;-77
2022/09/24 08:50:20;;;;;;;8.40;3.65;;;;;;;;;;5101394;28;20480;-77
2022/09/24 08:53:11;;;;;;;5.82;3.72;;;;;;;;;;5095186;28;20039;-77
2022/09/24 08:56:03;;;;;;;5.10;3.63;;;;;;;;;;5063576;28;20032;-77
2022/09/24 08:58:49;;;;;;;4.97;3.47;;;;;;;;;;5089167;28;20089;-77
2022/09/24 09:01:26;;;;;;;8.40;3.63;;;;;;;;;;5095061;28;20036;-78
2022/09/24 09:04:26;;;;;;;10.05;4.00;;;;;;;;;;5094343;28;20035;-77
2022/09/24 09:07:02;;;;;;;6.43;3.65;;;;;;;;;;5094453;28;20092;-77
2022/09/24 09:09:40;;;;;;;5.03;3.10;;;;;;;;;;5094232;28;20035;-77
2022/09/24 09:12:18;;;;;;;6.15;3.65;;;;;;;;;;5094440;28;20035;-77
2022/09/24 09:15:05;;;;;;;4.88;3.40;;;;;;;;;;5094096;28;20020;-78
2022/09/24 09:17:51;;;;;;;6.15;3.70;;;;;;;;;;5093980;28;20038;-77
2022/09/24 09:20:20;;;;;;;5.65;3.60;;;;;;;;;;5094112;28;20036;-77
2022/09/24 09:22:52;;;;;;;6.00;3.53;;;;;;;;;;5094286;28;20040;-77
2022/09/24 09:25:29;;;;;;;7.43;4.00;;;;;;;;;;5094210;28;20107;-77
2022/09/24 09:28:06;;;;;;;9.70;4.00;;;;;;;;;;5094569;28;20388;-77
2022/09/24 09:30:46;;;;;;;6.07;3.60;;;;;;;;;;5094507;28;20028;-77
2022/09/24 09:33:31;;;;;;;6.25;4.00;;;;;;;;;;5094500;28;20028;-77
2022/09/24 09:36:36;;;;;;;5.20;3.22;;;;;;;;;;5094591;28;20024;-77
2022/09/24 09:39:45;;;;;;;9.30;3.30;;;;;;;;;;5094679;28;20032;-78
2022/09/24 09:42:35;;;;;;;5.38;3.30;;;;;;;;;;5093036;28;20024;-77
2022/09/24 09:45:18;;;;;;;6.35;3.85;;;;;;;;;;5094060;28;20039;-77
2022/09/24 09:47:49;;;;;;;6.13;3.35;;;;;;;;;;5094154;28;20032;-78
2022/09/24 09:50:34;;;;;;;7.05;3.80;;;;;;;;;;5094572;28;20035;-77
2022/09/24 09:53:01;;;;;;;6.80;3.80;;;;;;;;;;5097719;28;20024;-77
2022/09/24 09:55:30;;;;;;;6.07;3.63;;;;;;;;;;5097861;28;20016;-77
2022/09/24 09:58:29;;;;;;;7.80;3.40;;;;;;;;;;5097438;28;20481;-77
2022/09/24 10:01:17;;;;;;;5.63;3.45;;;;;;;;;;5054043;28;20040;-78
2022/09/24 10:03:47;;;;;;;5.50;3.20;;;;;;;;;;5097790;28;20024;-77
2022/09/24 10:06:25;;;;;;;6.38;3.30;;;;;;;;;;5097692;28;20024;-77
2022/09/24 10:08:51;;;;;;;7.43;4.10;;;;;;;;;;5097612;28;20028;-77
2022/09/24 10:11:17;;;;;;;6.68;3.33;;;;;;;;;;5097567;28;20392;-77
2022/09/24 10:13:44;;;;;;;5.22;3.08;;;;;;;;;;5096866;28;20028;-78
2022/09/24 10:16:12;;;;;;;5.97;3.22;;;;;;;;;;5097403;28;20592;-78
2022/09/24 10:18:48;;;;;;;5.38;3.13;;;;;;;;;;5097026;28;20039;-77
2022/09/24 10:21:31;;;;;;;6.30;3.42;;;;;;;;;;5097259;28;20047;-77
2022/09/24 10:24:02;;;;;;;4.35;2.88;;;;;;;;;;5097184;28;20095;-77
2022/09/24 10:26:39;;;;;;;4.63;2.40;;;;;;;;;;5097346;28;20151;-78
2022/09/24 10:31:52;;;;;;;6.13;2.30;;;;;;;;;;5096415;28;20034;-76
2022/09/24 10:34:25;;;;;;;4.78;2.50;;;;;;;;;;5096784;28;20103;-77
2022/09/24 10:36:52;;;;;;;5.50;2.50;;;;;;;;;;5096937;28;20024;-75
2022/09/24 10:39:20;;;;;;;2.92;2.25;;;;;;;;;;5096001;28;20028;-77
2022/09/24 10:41:50;;;;;;;4.15;2.75;;;;;;;;;;5095143;28;20404;-77
2022/09/24 10:44:17;;;;;;;5.68;2.45;;;;;;;;;;5094791;28;20484;-77
2022/09/24 10:47:06;;;;;;;4.75;2.67;;;;;;;;;;5096687;28;20039;-77
2022/09/24 10:50:01;;;;;;;3.53;2.38;;;;;;;;;;5096013;28;20020;-75
2022/09/24 10:52:46;;;;;;;3.20;2.30;;;;;;;;;;5095852;28;20550;-77
2022/09/24 10:55:53;;;;;;;3.97;2.50;;;;;;;;;;5095971;28;20020;-76
2022/09/24 10:58:47;;;;;;;3.60;2.15;;;;;;;;;;5095966;28;20116;-77
2022/09/24 11:01:25;;;;;;;4.05;2.35;;;;;;;;;;5095316;28;20082;-76
2022/09/24 11:03:54;;;;;;;4.97;2.22;;;;;;;;;;5095660;28;20488;-77
2022/09/24 11:06:47;;;;;;;5.30;2.17;;;;;;;;;;5095836;28;20028;-78
2022/09/24 11:09:30;;;;;;;3.00;1.88;;;;;;;;;;5096116;28;20484;-77
2022/09/24 11:12:13;;;;;;;3.25;2.25;;;;;;;;;;5094630;28;20055;-76
2022/09/24 11:15:18;;;;;;;3.67;1.73;;;;;;;;;;5095766;28;20500;-77
2022/09/24 11:18:03;;;;;;;3.65;2.00;;;;;;;;;;5095812;28;20077;-75
2022/09/24 11:20:36;;;;;;;4.50;2.28;;;;;;;;;;5095487;28;20463;-77
2022/09/24 11:23:23;;;;;;;2.95;2.10;;;;;;;;;;5095652;28;20473;-77
2022/09/24 11:26:00;;;;;;;4.40;2.15;;;;;;;;;;5095742;28;20081;-77
2022/09/24 11:28:57;;;;;;;3.25;2.35;;;;;;;;;;5095557;28;20149;-76
2022/09/24 11:31:33;;;;;;;3.08;2.00;;;;;;;;;;5095441;28;20475;-77
2022/09/24 11:34:14;;;;;;;4.07;2.30;;;;;;;;;;5095419;28;20028;-77
2022/09/24 11:37:10;;;;;;;2.80;2.00;;;;;;;;;;5093714;28;20097;-77
2022/09/24 11:40:06;;;;;;;3.05;2.00;;;;;;;;;;5095134;28;20111;-77
2022/09/24 11:42:58;;;;;;;2.83;2.05;;;;;;;;;;5095793;28;20028;-77
2022/09/24 11:45:47;;;;;;;3.85;2.17;;;;;;;;;;5094574;28;20036;-76
2022/09/24 11:48:38;;;;;;;4.07;2.55;;;;;;;;;;5094728;28;20031;-77
2022/09/24 11:51:18;;;;;;;4.05;2.38;;;;;;;;;;5094642;28;20024;-75
2022/09/24 11:53:55;;;;;;;3.47;2.50;;;;;;;;;;5094572;28;20020;-77
2022/09/24 11:56:31;;;;;;;3.83;2.40;;;;;;;;;;5094328;28;20048;-77
2022/09/24 11:59:34;;;;;;;3.95;2.35;;;;;;;;;;5094587;28;20137;-77
2022/09/24 12:02:24;;;;;;;4.50;2.15;;;;;;;;;;5094326;28;20016;-77
2022/09/24 12:05:13;;;;;;;5.10;2.17;;;;;;;;;;5094930;28;20419;-77
2022/09/24 12:07:46;;;;;;;3.58;2.67;;;;;;;;;;5095464;28;20024;-76
2022/09/24 12:10:25;;;;;;;3.67;2.10;;;;;;;;;;5094335;28;20034;-77
2022/09/24 12:12:56;;;;;;;6.53;2.50;;;;;;;;;;5094714;28;20024;-77
2022/09/24 12:15:26;;;;;;;4.32;2.20;;;;;;;;;;5092461;28;20031;-77
2022/09/24 12:18:05;;;;;;;5.55;2.47;;;;;;;;;;5094746;28;20043;-77
2022/09/24 12:20:33;;;;;;;4.13;2.53;;;;;;;;;;5095110;28;20089;-77
2022/09/24 12:23:06;;;;;;;3.22;2.25;;;;;;;;;;5095099;28;20354;-78
2022/09/24 12:25:39;;;;;;;3.63;2.42;;;;;;;;;;5095542;28;20024;-77
2022/09/24 12:28:08;;;;;;;3.70;2.50;;;;;;;;;;5095661;28;20550;-77
2022/09/24 12:33:44;;;;;;;3.22;2.30;;;;;;;;;;5094146;28;20109;-76
2022/09/24 12:36:20;;;;;;;4.57;2.20;;;;;;;;;;5093960;28;20413;-78
2022/09/24 12:39:02;;;;;;;4.18;2.50;;;;;;;;;;5093966;28;20106;-76
2022/09/24 12:41:32;;;;;;;5.15;2.25;;;;;;;;;;5093902;28;20030;-76
2022/09/24 12:44:18;;;;;;;2.92;2.30;;;;;;;;;;5093698;28;20028;-76
2022/09/24 12:46:52;;;;;;;5.10;1.83;;;;;;;;;;5092624;28;20028;-78
2022/09/24 12:49:23;;;;;;;2.78;2.00;;;;;;;;;;5094264;28;20024;-76
2022/09/24 12:51:51;;;;;;;5.28;2.05;;;;;;;;;;5092354;28;20098;-77
2022/09/24 12:54:34;;;;;;;3.00;2.28;;;;;;;;;;5092334;28;20027;-76
2022/09/24 12:57:09;;;;;;;3.38;2.40;;;;;;;;;;5092027;28;20020;-77
2022/09/24 12:59:45;;;;;;;5.13;2.40;;;;;;;;;;5093107;28;20557;-78
2022/09/24 13:02:20;;;;;;;3.38;2.25;;;;;;;;;;5093455;28;20028;-77
2022/09/24 13:05:00;;;;;;;2.80;2.13;;;;;;;;;;5092650;28;20101;-77
2022/09/24 13:07:41;;;;;;;3.08;2.30;;;;;;;;;;5093330;28;20469;-77
2022/09/24 13:10:16;;;;;;;4.70;2.15;;;;;;;;;;5093452;28;20024;-76
2022/09/24 13:12:44;;;;;;;4.32;2.20;;;;;;;;;;5091957;28;20493;-76
2022/09/24 13:15:31;;;;;;;2.92;2.10;;;;;;;;;;5092189;28;20028;-76
2022/09/24 13:18:03;;;;;;;4.72;2.30;;;;;;;;;;5091943;28;20062;-77
2022/09/24 13:20:30;;;;;;;3.08;2.38;;;;;;;;;;5093020;28;20020;-75
2022/09/24 13:23:18;;;;;;;2.22;1.92;;;;;;;;;;5093253;28;20034;-76
2022/09/24 13:26:03;;;;;;;3.92;2.20;;;;;;;;;;5077700;28;20032;-76
2022/09/24 13:28:36;;;;;;;2.10;1.75;;;;;;;;;;5097348;28;21344;-76
2022/09/24 13:31:18;;;;;;;3.00;2.00;;;;;;;;;;5097208;28;20024;-76
2022/09/24 13:33:47;;;;;;;2.42;2.08;;;;;;;;;;5097416;28;20028;-77
2022/09/24 13:36:22;;;;;;;3.53;2.10;;;;;;;;;;5097363;28;20393;-77
2022/09/24 13:38:56;;;;;;;3.38;2.03;;;;;;;;;;5097554;28;20068;-77
2022/09/24 13:41:31;;;;;;;4.35;2.20;;;;;;;;;;5095709;28;20086;-77
2022/09/24 13:44:10;;;;;;;3.42;2.00;;;;;;;;;;5095495;28;20492;-77
2022/09/24 13:46:42;;;;;;;3.17;2.03;;;;;;;;;;5097335;28;20028;-77
2022/09/24 13:49:12;;;;;;;3.65;2.25;;;;;;;;;;5096798;28;20024;-77
2022/09/24 13:51:40;;;;;;;3.75;2.28;;;;;;;;;;5097227;28;20023;-77
2022/09/24 13:54:28;;;;;;;3.67;2.33;;;;;;;;;;5095700;28;20024;-77
2022/09/24 13:57:12;;;;;;;5.88;2.20;;;;;;;;;;5095369;28;20043;-77
2022/09/24 13:59:37;;;;;;;2.65;2.08;;;;;;;;;;5096560;28;20028;-77
2022/09/24 14:02:02;;;;;;;2.50;2.00;;;;;;;;;;5095331;28;20480;-77
2022/09/24 14:04:29;;;;;;;4.68;2.00;;;;;;;;;;5096600;28;20733;-76
2022/09/24 14:06:56;;;;;;;3.20;2.10;;;;;;;;;;5096452;28;20078;-77
2022/09/24 14:09:22;;;;;;;2.67;2.10;;;;;;;;;;5096236;28;20115;-75
2022/09/24 14:11:52;;;;;;;3.93;2.30;;;;;;;;;;5096313;28;20134;-76
2022/09/24 14:14:20;;;;;;;2.47;2.00;;;;;;;;;;5096222;28;20107;-76
2022/09/24 14:16:45;;;;;;;3.45;2.13;;;;;;;;;;5095343;28;20024;-76
2022/09/24 14:19:13;;;;;;;3.03;1.92;;;;;;;;;;5096140;28;20042;-74
2022/09/24 14:21:53;;;;;;;2.80;1.80;;;;;;;;;;5094803;28;20020;-76
2022/09/24 14:24:24;;;;;;;3.20;2.20;;;;;;;;;;5095342;28;20047;-76
2022/09/24 14:26:57;;;;;;;2.78;2.10;;;;;;;;;;5096410;28;20028;-76
2022/09/24 14:29:28;;;;;;;2.03;1.83;;;;;;;;;;5096065;28;20028;-76
2022/09/24 14:31:57;;;;;;;5.57;2.35;;;;;;;;;;5096128;28;20020;-77
2022/09/24 14:34:25;;;;;;;2.75;2.33;;;;;;;;;;5096020;28;20030;-76
2022/09/24 14:36:57;;;;;;;4.03;2.10;;;;;;;;;;5095568;28;20123;-75
2022/09/24 14:39:26;;;;;;;3.78;2.00;;;;;;;;;;5096347;28;20031;-78
2022/09/24 14:41:53;;;;;;;3.05;2.05;;;;;;;;;;5096294;28;20049;-75
2022/09/24 14:44:23;;;;;;;2.78;2.10;;;;;;;;;;5095982;28;20028;-77
2022/09/24 14:46:52;;;;;;;2.83;2.00;;;;;;;;;;5095317;28;20028;-78
2022/09/24 14:49:26;;;;;;;4.45;1.90;;;;;;;;;;5095407;28;20028;-78
2022/09/24 14:51:58;;;;;;;;;;;;;;;;;;5096665;28;20097;-74
2022/09/24 14:54:31;;;;;;;3.30;2.47;;;;;;;;;;5093979;28;19930;-76
2022/09/24 14:57:15;;;;;;;5.80;2.80;;;;;;;;;;5095490;28;20094;-76
2022/09/24 14:59:41;;;;;;;4.35;2.45;;;;;;;;;;5095409;28;20035;-76
2022/09/24 15:02:18;;;;;;;4.47;2.75;;;;;;;;;;5095510;28;20024;-76
2022/09/24 15:04:47;;;;;;;4.35;2.80;;;;;;;;;;5094162;28;20024;-76
2022/09/24 15:07:18;;;;;;;4.60;3.00;;;;;;;;;;5093988;28;20028;-76
2022/09/24 15:09:48;;;;;;;4.85;3.00;;;;;;;;;;5096049;28;20143;-78
2022/09/24 15:12:33;;;;;;;6.25;3.00;;;;;;;;;;5095399;28;20019;-76
2022/09/24 15:15:01;;;;;;;5.78;2.58;;;;;;;;;;5095457;28;20032;-78
2022/09/24 15:17:34;;;;;;;3.97;2.67;;;;;;;;;;5095186;28;20530;-76
2022/09/24 15:20:00;;;;;;;4.00;3.00;;;;;;;;;;5093838;28;20032;-77
2022/09/24 15:22:26;;;;;;;3.63;2.60;;;;;;;;;;5094981;28;20031;-77
2022/09/24 15:24:53;;;;;;;4.35;2.88;;;;;;;;;;5095274;28;20495;-77